This is the latest recevied weather packets stored in our database for station/object W1RCY. If no packets are shown the sender has not sent any weather packets the latest 10 day(s).
| Time | Temp. | Humidity | Pressure | Rain* | Wind** | Luminosity | Snow |
|---|---|---|---|---|---|---|---|
| 1777706908 | 4.44° C | 73% | 1011.3 hPa | 0 mm | - | 0 W/m² | - |
| 1777706606 | 4.44° C | 80% | 1011.5 hPa | 0 mm | - | 0 W/m² | - |
| 1777706303 | 3.89° C | 80% | 1011.3 hPa | 0 mm | - | 0 W/m² | - |
| 1777706001 | 3.89° C | 80% | 1011.4 hPa | 0 mm | - | 0 W/m² | - |
| 1777705699 | 3.89° C | 79% | 1011.5 hPa | 0 mm | - | 0 W/m² | - |
| 1777705396 | 3.89° C | 78% | 1011.5 hPa | 0 mm | - | 0 W/m² | - |
| 1777705095 | 4.44° C | 71% | 1011.1 hPa | 0 mm | - | 0 W/m² | - |
| 1777704793 | 4.44° C | 72% | 1011.1 hPa | 0 mm | - | 0 W/m² | - |
| 1777704490 | 3.89° C | 73% | 1011.3 hPa | 0 mm | - | 0 W/m² | - |
| 1777704188 | 3.33° C | 76% | 1011.2 hPa | 0 mm | - | 0 W/m² | - |
| 1777703885 | 2.78° C | 80% | 1011 hPa | 0 mm | - | 0 W/m² | - |
| 1777703583 | 2.78° C | 83% | 1011.1 hPa | 0 mm | - | 0 W/m² | - |
| 1777703280 | 2.78° C | 84% | 1010.9 hPa | 0 mm | - | 0 W/m² | - |
| 1777702978 | 2.78° C | 84% | 1010.7 hPa | 0 mm | - | 0 W/m² | - |
| 1777702676 | 3.89° C | 82% | 1010.7 hPa | 0 mm | - | 0 W/m² | - |
| 1777702374 | 3.33° C | 84% | 1010.6 hPa | 0 mm | - | 0 W/m² | - |
| 1777702074 | 2.78° C | 85% | 1010.6 hPa | 0 mm | - | 0 W/m² | - |
| 1777701769 | 2.78° C | 84% | 1010.5 hPa | 0 mm | - | 0 W/m² | - |
| 1777701468 | 2.78° C | 84% | 1010.6 hPa | 0 mm | - | 0 W/m² | - |
| 1777701165 | 2.78° C | 83% | 1010.5 hPa | 0 mm | - | 0 W/m² | - |
| 1777700864 | 3.33° C | 81% | 1010.2 hPa | 0 mm | - | 0 W/m² | - |
| 1777700561 | 3.89° C | 79% | 1010.5 hPa | 0 mm | - | 0 W/m² | - |
| 1777700259 | 3.89° C | 77% | 1010.6 hPa | 0 mm | - | 0 W/m² | - |
| 1777699956 | 3.89° C | 77% | 1010.6 hPa | 0 mm | - | 0 W/m² | - |
| 1777699654 | 3.89° C | 77% | 1010.3 hPa | 0 mm | - | 0 W/m² | - |
* Rain latest hour (hover to see other rain measurements)
** Current wind speed in m/s (hover to see current wind gust speed)